createdAt,value
2022-12-09T00:08:48.465Z,2.30
2022-12-09T00:13:51.483Z,2.30
2022-12-09T00:23:57.754Z,2.10
2022-12-09T00:29:00.631Z,2.10
2022-12-09T00:34:06.081Z,2.10
2022-12-09T00:49:12.982Z,2.00
2022-12-09T01:09:24.907Z,3.30
2022-12-09T01:19:29.238Z,2.00
2022-12-09T01:39:38.687Z,1.80
2022-12-09T01:45:19.095Z,1.80
2022-12-09T01:50:21.333Z,1.70
2022-12-09T02:05:30.377Z,1.70
2022-12-09T02:10:35.970Z,1.80
2022-12-09T02:15:46.108Z,1.70
2022-12-09T02:20:57.461Z,1.50
2022-12-09T02:26:19.640Z,1.50
2022-12-09T02:31:27.305Z,1.60
2022-12-09T02:36:36.312Z,1.60
2022-12-09T02:41:41.825Z,1.50
2022-12-09T02:46:44.459Z,1.50
2022-12-09T02:51:48.830Z,0.60
2022-12-09T02:56:55.727Z,0.90
2022-12-09T03:02:06.772Z,1.30
2022-12-09T03:07:25.350Z,1.00
2022-12-09T03:12:30.575Z,1.20
2022-12-09T03:17:37.815Z,1.30
2022-12-09T03:22:43.270Z,1.20
2022-12-09T03:28:21.346Z,1.10
2022-12-09T03:33:25.325Z,1.10
2022-12-09T03:38:31.152Z,1.10
2022-12-09T03:43:38.231Z,0.80
2022-12-09T03:48:40.215Z,0.80
2022-12-09T03:53:48.662Z,0.60
2022-12-09T03:58:55.415Z,0.60
2022-12-09T04:09:02.570Z,0.80
2022-12-09T04:54:30.681Z,0.70
2022-12-09T05:14:40.597Z,0.60
2022-12-09T05:24:46.882Z,0.60
2022-12-09T05:44:56.393Z,0.60
2022-12-09T05:50:02.973Z,0.50
2022-12-09T05:55:09.570Z,0.50
2022-12-09T06:00:12.896Z,0.70
2022-12-09T06:15:22.058Z,0.70
2022-12-09T06:35:34.496Z,0.60
2022-12-09T06:40:41.964Z,0.80
2022-12-09T06:50:46.474Z,0.90
2022-12-09T07:00:51.227Z,1.00
2022-12-09T07:10:57.258Z,0.90
2022-12-09T07:21:18.865Z,0.90
2022-12-09T07:26:21.436Z,1.00
2022-12-09T07:31:25.844Z,1.00
2022-12-09T07:36:30.327Z,1.10
2022-12-09T07:51:37.640Z,1.10
2022-12-09T07:56:40.762Z,1.30
2022-12-09T08:06:45.560Z,1.40
2022-12-09T08:31:59.999Z,1.50
2022-12-09T08:42:05.533Z,1.90
2022-12-09T09:17:23.892Z,2.20
2022-12-09T09:42:47.960Z,2.70
2022-12-09T09:47:59.256Z,2.90
2022-12-09T09:53:12.191Z,2.80
2022-12-09T09:58:24.706Z,2.70
2022-12-09T10:03:47.603Z,3.00
2022-12-09T10:09:10.763Z,3.10
2022-12-09T10:14:35.241Z,3.30
2022-12-09T10:19:43.639Z,3.40
2022-12-09T10:24:52.474Z,3.50
2022-12-09T10:29:59.189Z,3.60
2022-12-09T10:35:02.445Z,3.60
2022-12-09T10:40:11.178Z,3.40
2022-12-09T10:45:13.567Z,3.20
2022-12-09T10:50:27.410Z,3.20
2022-12-09T10:55:39.846Z,3.40
2022-12-09T11:10:50.287Z,3.50
2022-12-09T11:16:01.585Z,3.70
2022-12-09T11:21:07.206Z,3.70
2022-12-09T11:26:31.079Z,3.70
2022-12-09T11:31:38.152Z,3.60
2022-12-09T11:36:46.709Z,3.50
2022-12-09T11:42:16.443Z,3.70
2022-12-09T11:47:57.740Z,3.70
2022-12-09T11:53:11.638Z,3.90
2022-12-09T11:58:26.121Z,4.00
2022-12-09T12:03:40.509Z,4.00
2022-12-09T12:08:46.616Z,4.10
2022-12-09T12:13:50.801Z,4.00
2022-12-09T12:19:07.441Z,4.20
2022-12-09T12:24:33.445Z,4.20
2022-12-09T12:30:00.865Z,4.20
2022-12-09T12:35:36.903Z,4.10
2022-12-09T12:41:03.561Z,4.00
2022-12-09T12:46:27.017Z,4.20
2022-12-09T12:51:34.871Z,4.10
2022-12-09T12:56:51.338Z,4.10
2022-12-09T13:02:07.802Z,4.10
2022-12-09T13:07:40.040Z,4.30
2022-12-09T13:12:54.371Z,4.30
2022-12-09T13:17:56.367Z,4.20
2022-12-09T13:23:14.456Z,4.20
2022-12-09T13:28:38.896Z,4.20
2022-12-09T13:34:17.460Z,4.10
2022-12-09T13:39:40.803Z,4.40
2022-12-09T13:44:42.815Z,4.40
2022-12-09T13:49:57.323Z,4.40
2022-12-09T14:00:06.536Z,4.10
2022-12-09T14:05:20.996Z,4.40
2022-12-09T14:10:39.649Z,4.50
2022-12-09T14:30:59.772Z,4.70
2022-12-09T14:36:14.151Z,4.50
2022-12-09T14:41:25.752Z,4.50
2022-12-09T14:46:31.103Z,4.50
2022-12-09T14:51:38.684Z,4.40
2022-12-09T14:56:46.748Z,4.50
2022-12-09T15:02:00.779Z,4.60
2022-12-09T15:07:11.534Z,4.60
2022-12-09T15:12:13.276Z,4.50
2022-12-09T15:17:28.862Z,4.50
2022-12-09T15:22:32.191Z,4.60
2022-12-09T15:27:33.985Z,4.50
2022-12-09T15:32:39.469Z,4.40
2022-12-09T15:42:47.494Z,4.50
2022-12-09T15:48:02.277Z,4.60
2022-12-09T15:58:10.580Z,4.40
2022-12-09T16:03:17.203Z,4.40
2022-12-09T16:08:19.602Z,4.50
2022-12-09T16:13:21.445Z,4.40
2022-12-09T16:18:49.661Z,4.40
2022-12-09T16:23:54.676Z,4.30
2022-12-09T16:29:05.797Z,4.30
2022-12-09T16:34:20.126Z,4.30
2022-12-09T16:39:24.878Z,4.50
2022-12-09T16:44:35.157Z,4.40
2022-12-09T16:49:37.406Z,4.40
2022-12-09T16:59:42.699Z,4.40
2022-12-09T17:04:44.606Z,4.30
2022-12-09T17:19:51.268Z,4.30
2022-12-09T18:00:15.953Z,4.30
2022-12-09T18:50:37.729Z,4.30
2022-12-09T18:55:43.523Z,4.30
2022-12-09T19:05:47.431Z,4.30
2022-12-09T19:10:55.255Z,4.10
2022-12-09T19:15:59.023Z,4.00
2022-12-09T19:21:09.067Z,3.90
2022-12-09T19:26:13.117Z,4.00
2022-12-09T19:31:25.414Z,3.90
2022-12-09T19:36:28.718Z,4.10
2022-12-09T19:41:30.410Z,4.10
2022-12-09T19:46:33.059Z,4.20
2022-12-09T19:51:34.921Z,4.30
2022-12-09T19:56:37.150Z,4.30
2022-12-09T20:01:42.763Z,1.70
2022-12-09T20:06:45.742Z,4.40
2022-12-09T20:16:49.832Z,4.20
2022-12-09T20:21:51.629Z,4.20
2022-12-09T20:26:53.440Z,4.20
2022-12-09T20:31:55.254Z,4.30
2022-12-09T21:02:13.857Z,4.30
2022-12-09T21:07:16.496Z,4.30
2022-12-09T21:32:27.088Z,4.30
2022-12-09T21:37:30.167Z,4.30
2022-12-09T21:42:31.845Z,4.20
2022-12-09T21:47:33.679Z,4.20
2022-12-09T22:17:47.659Z,4.10
2022-12-09T22:32:53.753Z,4.20
2022-12-09T22:48:03.778Z,4.10
2022-12-09T22:53:05.493Z,4.00
2022-12-09T23:23:19.607Z,3.80
2022-12-09T23:33:23.817Z,4.20
2022-12-09T23:38:25.550Z,4.10
2022-12-09T23:43:31.277Z,4.20
